Schedule Details


Flight Number: CTN321
Departure: Ruzyne (LKPR) at 10:40
Arrival: Franjo Tudman (LDZA) at 12:00
Route: VOZ Z21 PISAM DCT MUREG DCT PETOV

Weather Information
LKPR 191000Z 22023KT 9999 BKN026 06/01 Q1014 NOSIG
LDZA 191000Z 12004KT 070V170 CAVOK 09/02 Q1021 NOSIG
Schedule Frequency

Route Map